createdAt,value
2019-05-19T00:00:15.519Z,75.55
2019-05-19T00:02:44.160Z,75.62
2019-05-19T00:05:13.009Z,76.42
2019-05-19T00:07:41.707Z,75.78
2019-05-19T00:10:10.401Z,75.14
2019-05-19T00:12:39.013Z,74.72
2019-05-19T00:15:07.726Z,74.76
2019-05-19T00:17:36.244Z,74.59
2019-05-19T00:20:07.134Z,74.22
2019-05-19T00:22:35.728Z,74.96
2019-05-19T00:25:06.085Z,75.61
2019-05-19T00:27:35.284Z,75.98
2019-05-19T00:30:05.486Z,75.89
2019-05-19T00:32:34.033Z,76.17
2019-05-19T00:35:02.652Z,76.04
2019-05-19T00:37:31.105Z,76.50
2019-05-19T00:39:59.727Z,76.46
2019-05-19T00:42:28.242Z,76.12
2019-05-19T00:44:56.993Z,76.02
2019-05-19T00:47:25.581Z,77.02
2019-05-19T00:49:54.212Z,76.91
2019-05-19T00:52:22.808Z,76.66
2019-05-19T00:54:51.463Z,76.89
2019-05-19T00:57:20.474Z,76.46
2019-05-19T00:59:49.788Z,75.63
2019-05-19T01:02:18.353Z,75.89
2019-05-19T01:04:46.887Z,76.00
2019-05-19T01:07:15.478Z,76.14
2019-05-19T01:09:44.035Z,76.30
2019-05-19T01:12:12.567Z,76.93
2019-05-19T01:14:41.199Z,76.95
2019-05-19T01:17:09.809Z,76.79
2019-05-19T01:19:38.350Z,76.77
2019-05-19T01:22:08.270Z,76.95
2019-05-19T01:24:36.798Z,76.80
2019-05-19T01:27:05.929Z,77.12
2019-05-19T01:29:34.406Z,76.82
2019-05-19T01:32:03.024Z,77.39
2019-05-19T01:34:31.663Z,77.34
2019-05-19T01:37:00.209Z,77.50
2019-05-19T01:39:28.875Z,76.38
2019-05-19T01:41:57.515Z,76.16
2019-05-19T01:44:26.069Z,76.73
2019-05-19T01:46:54.702Z,77.49
2019-05-19T01:49:23.245Z,76.85
2019-05-19T01:51:51.874Z,77.07
2019-05-19T01:54:20.492Z,77.44
2019-05-19T01:56:49.134Z,77.87
2019-05-19T01:59:17.833Z,77.27
2019-05-19T02:01:46.326Z,76.67
2019-05-19T02:04:14.855Z,77.11
2019-05-19T02:06:43.489Z,77.72
2019-05-19T02:09:12.072Z,77.59
2019-05-19T02:11:40.638Z,77.96
2019-05-19T02:14:09.218Z,77.48
2019-05-19T02:16:37.770Z,77.21
2019-05-19T02:19:06.600Z,77.27
2019-05-19T02:21:35.141Z,77.67
2019-05-19T02:24:03.742Z,77.23
2019-05-19T02:26:32.242Z,77.06
2019-05-19T02:29:00.826Z,76.87
2019-05-19T02:31:29.342Z,77.57
2019-05-19T02:33:57.990Z,77.53
2019-05-19T02:36:26.541Z,77.43
2019-05-19T02:38:55.173Z,78.04
2019-05-19T02:41:26.861Z,77.88
2019-05-19T02:43:56.550Z,77.65
2019-05-19T02:46:27.386Z,77.81
2019-05-19T02:48:56.734Z,77.73
2019-05-19T02:51:28.221Z,78.04
2019-05-19T02:53:58.609Z,77.17
2019-05-19T02:56:29.116Z,76.08
2019-05-19T02:58:58.623Z,75.88
2019-05-19T03:01:27.106Z,75.31
2019-05-19T03:03:55.637Z,76.24
2019-05-19T03:06:24.183Z,76.70
2019-05-19T03:08:52.811Z,76.70
2019-05-19T03:11:21.283Z,76.33
2019-05-19T03:13:49.852Z,76.53
2019-05-19T03:16:18.468Z,76.89
2019-05-19T03:18:47.125Z,76.69
2019-05-19T03:21:15.639Z,77.37
2019-05-19T03:23:44.262Z,77.80
2019-05-19T03:26:12.880Z,77.93
2019-05-19T03:28:41.404Z,77.16
2019-05-19T03:31:26.782Z,77.95
2019-05-19T03:33:57.027Z,77.55
2019-05-19T03:36:25.565Z,77.90
2019-05-19T03:38:54.100Z,77.97
2019-05-19T03:41:22.664Z,78.21
2019-05-19T03:43:51.201Z,77.56
2019-05-19T03:46:19.901Z,77.17
2019-05-19T03:48:48.523Z,77.48
2019-05-19T03:51:30.409Z,77.90
2019-05-19T03:53:47.280Z,77.90
2019-05-19T03:56:15.934Z,77.65
2019-05-19T03:58:44.382Z,76.70
2019-05-19T04:01:12.953Z,77.22
2019-05-19T04:03:41.521Z,76.99
2019-05-19T04:06:10.237Z,76.40
2019-05-19T04:08:38.784Z,76.46
2019-05-19T04:11:07.892Z,77.02
2019-05-19T04:13:36.414Z,76.40
2019-05-19T04:16:05.009Z,76.33
2019-05-19T04:18:33.531Z,76.79
2019-05-19T04:21:02.063Z,76.96
2019-05-19T04:23:30.608Z,76.74
2019-05-19T04:25:59.133Z,76.80
2019-05-19T04:28:27.691Z,75.92
2019-05-19T04:30:56.327Z,75.83
2019-05-19T04:33:24.833Z,74.84
2019-05-19T04:35:57.278Z,74.42
2019-05-19T04:38:23.915Z,74.91
2019-05-19T04:40:52.556Z,75.96
2019-05-19T04:43:21.153Z,74.95
2019-05-19T04:45:49.726Z,74.21
2019-05-19T04:48:18.378Z,73.83
2019-05-19T04:50:46.947Z,74.65
2019-05-19T04:53:15.496Z,74.78
2019-05-19T04:55:44.073Z,74.74
2019-05-19T04:58:12.688Z,74.76
2019-05-19T05:00:41.269Z,75.14
2019-05-19T05:03:09.919Z,75.04
2019-05-19T05:05:38.528Z,75.53
2019-05-19T05:08:07.117Z,74.98
2019-05-19T05:10:35.607Z,74.91
2019-05-19T05:13:04.202Z,74.19
2019-05-19T05:15:32.744Z,74.93
2019-05-19T05:18:01.360Z,74.15
2019-05-19T05:20:29.882Z,73.57
2019-05-19T05:22:58.475Z,73.11
2019-05-19T05:25:27.021Z,72.79
2019-05-19T05:27:55.608Z,72.59
2019-05-19T05:30:24.134Z,73.17
2019-05-19T05:32:52.720Z,72.77
2019-05-19T05:35:21.306Z,72.58
2019-05-19T05:37:49.932Z,73.02
2019-05-19T05:40:18.506Z,72.22
2019-05-19T05:42:46.995Z,71.96
2019-05-19T05:45:15.897Z,72.45
2019-05-19T05:47:44.523Z,72.30
2019-05-19T05:50:13.320Z,72.41
2019-05-19T05:52:41.954Z,72.06
2019-05-19T05:55:10.969Z,72.06
2019-05-19T05:57:39.504Z,71.80
2019-05-19T06:00:09.346Z,71.19
2019-05-19T06:02:37.982Z,70.48
2019-05-19T06:05:07.173Z,70.91
2019-05-19T06:07:35.810Z,69.77
2019-05-19T06:10:06.592Z,69.40
2019-05-19T06:12:35.199Z,69.39
2019-05-19T06:15:03.824Z,69.25
2019-05-19T06:17:32.403Z,68.79
2019-05-19T06:20:00.967Z,68.32
2019-05-19T06:22:29.410Z,67.72
2019-05-19T06:24:59.286Z,68.10
2019-05-19T06:27:27.951Z,67.80
2019-05-19T06:29:56.604Z,67.38
2019-05-19T06:32:26.741Z,63.58
2019-05-19T06:34:55.323Z,58.78
2019-05-19T06:37:23.898Z,57.19
2019-05-19T06:39:52.393Z,58.15
2019-05-19T06:42:20.943Z,61.16
2019-05-19T06:44:49.476Z,62.86
2019-05-19T06:47:18.035Z,63.07
2019-05-19T06:49:46.564Z,63.81
2019-05-19T06:52:15.242Z,63.14
2019-05-19T06:54:43.840Z,63.90
2019-05-19T06:57:12.555Z,63.73
2019-05-19T06:59:41.035Z,64.59
2019-05-19T07:02:10.042Z,63.45
2019-05-19T07:04:38.607Z,61.90
2019-05-19T07:07:08.870Z,61.41
2019-05-19T07:09:37.450Z,61.49
2019-05-19T07:12:06.055Z,62.99
2019-05-19T07:14:34.623Z,63.64
2019-05-19T07:17:03.287Z,64.05
2019-05-19T07:19:31.908Z,64.29
2019-05-19T07:22:00.507Z,64.47
2019-05-19T07:24:28.962Z,64.44
2019-05-19T07:26:57.601Z,63.63
2019-05-19T07:29:26.187Z,63.59
2019-05-19T07:31:54.708Z,63.53
2019-05-19T07:34:23.384Z,62.98
2019-05-19T07:36:52.030Z,62.98
2019-05-19T07:39:20.523Z,63.80
2019-05-19T07:41:49.128Z,63.39
2019-05-19T07:44:17.712Z,61.94
2019-05-19T07:46:46.296Z,62.53
2019-05-19T07:49:14.848Z,61.47
2019-05-19T07:51:43.495Z,61.74
2019-05-19T07:54:12.020Z,60.60
2019-05-19T07:56:40.596Z,60.19
2019-05-19T07:59:09.188Z,61.72
2019-05-19T08:01:37.817Z,61.13
2019-05-19T08:04:06.467Z,61.81
2019-05-19T08:06:34.956Z,61.36
2019-05-19T08:09:05.149Z,59.55
2019-05-19T08:11:33.672Z,59.66
2019-05-19T08:14:02.429Z,58.48
2019-05-19T08:16:31.068Z,58.98
2019-05-19T08:18:59.689Z,58.31
2019-05-19T08:21:28.273Z,56.93
2019-05-19T08:24:00.807Z,57.30
2019-05-19T08:26:27.404Z,55.49
2019-05-19T08:28:56.001Z,53.70
2019-05-19T08:31:24.636Z,53.70
2019-05-19T08:33:53.294Z,55.19
2019-05-19T08:36:21.940Z,54.31
2019-05-19T08:38:50.459Z,53.30
2019-05-19T08:41:19.084Z,52.98
2019-05-19T08:43:47.729Z,54.53
2019-05-19T08:46:16.351Z,54.32
2019-05-19T08:48:44.930Z,54.02
2019-05-19T08:51:13.526Z,53.08
2019-05-19T08:53:42.170Z,52.98
2019-05-19T08:56:11.635Z,54.69
2019-05-19T08:58:40.194Z,54.06
2019-05-19T09:01:08.774Z,53.44
2019-05-19T09:03:37.315Z,54.31
2019-05-19T09:06:06.065Z,53.10
2019-05-19T09:08:34.660Z,50.94
2019-05-19T09:11:03.226Z,50.94
2019-05-19T09:13:31.845Z,52.34
2019-05-19T09:16:00.466Z,51.09
2019-05-19T09:18:29.141Z,51.41
2019-05-19T09:20:57.728Z,50.72
2019-05-19T09:23:26.669Z,50.09
2019-05-19T09:25:55.201Z,49.99
2019-05-19T09:28:23.761Z,48.81
2019-05-19T09:30:52.484Z,48.57
2019-05-19T09:33:21.048Z,49.50
2019-05-19T09:35:49.691Z,48.08
2019-05-19T09:38:18.234Z,47.69
2019-05-19T09:40:46.816Z,47.35
2019-05-19T09:43:15.499Z,47.50
2019-05-19T09:45:44.353Z,47.64
2019-05-19T09:48:12.903Z,45.68
2019-05-19T09:50:42.430Z,44.66
2019-05-19T09:53:11.099Z,44.31
2019-05-19T09:55:39.632Z,41.96
2019-05-19T09:58:08.255Z,43.38
2019-05-19T10:00:36.843Z,42.21
2019-05-19T10:03:05.524Z,43.67
2019-05-19T10:05:34.109Z,41.46
2019-05-19T10:08:02.740Z,42.77
2019-05-19T10:10:50.918Z,41.41
2019-05-19T10:13:19.535Z,40.15
2019-05-19T10:15:48.058Z,39.68
2019-05-19T10:18:16.692Z,39.91
2019-05-19T10:20:45.235Z,40.00
2019-05-19T10:23:13.820Z,39.55
2019-05-19T10:25:42.718Z,39.65
2019-05-19T10:28:11.270Z,39.82
2019-05-19T10:30:39.853Z,38.53
2019-05-19T10:33:08.452Z,39.11
2019-05-19T10:35:37.287Z,39.13
2019-05-19T10:38:05.943Z,39.47
2019-05-19T10:40:34.548Z,40.18
2019-05-19T10:43:03.108Z,40.55
2019-05-19T10:45:31.693Z,40.23
2019-05-19T10:48:00.328Z,40.69
2019-05-19T10:50:28.827Z,40.38
2019-05-19T10:52:57.425Z,38.96
2019-05-19T10:55:35.930Z,39.15
2019-05-19T10:57:56.347Z,38.20
2019-05-19T11:00:25.461Z,38.24
2019-05-19T11:02:54.040Z,37.53
2019-05-19T11:05:22.672Z,37.07
2019-05-19T11:07:51.267Z,37.01
2019-05-19T11:10:19.975Z,36.95
2019-05-19T11:12:48.555Z,37.35
2019-05-19T11:15:17.449Z,37.36
2019-05-19T11:17:45.979Z,36.96
2019-05-19T11:20:14.609Z,36.43
2019-05-19T11:22:43.243Z,36.54
2019-05-19T11:25:11.795Z,35.85
2019-05-19T11:27:40.404Z,36.26
2019-05-19T11:30:09.089Z,36.22
2019-05-19T11:32:37.649Z,34.84
2019-05-19T11:35:07.333Z,35.98
2019-05-19T11:37:35.848Z,35.12
2019-05-19T11:40:04.588Z,36.52
2019-05-19T11:42:33.213Z,35.00
2019-05-19T11:45:01.850Z,35.51
2019-05-19T11:47:30.389Z,34.94
2019-05-19T11:49:59.130Z,34.30
2019-05-19T11:52:27.729Z,34.26
2019-05-19T11:54:56.378Z,35.51
2019-05-19T11:57:25.005Z,36.00
2019-05-19T11:59:53.673Z,35.77
2019-05-19T12:02:22.374Z,36.17
2019-05-19T12:04:50.934Z,36.10
2019-05-19T12:07:19.488Z,35.79
2019-05-19T12:09:48.123Z,36.45
2019-05-19T12:12:16.731Z,36.95
2019-05-19T12:14:45.411Z,35.94
2019-05-19T12:17:14.274Z,36.14
2019-05-19T12:19:42.786Z,36.33
2019-05-19T12:22:11.289Z,36.04
2019-05-19T12:24:39.919Z,35.84
2019-05-19T12:27:09.723Z,35.56
2019-05-19T12:29:38.345Z,36.38
2019-05-19T12:32:06.925Z,35.39
2019-05-19T12:34:35.540Z,35.30
2019-05-19T12:37:04.150Z,36.51
2019-05-19T12:39:32.868Z,35.25
2019-05-19T12:42:01.446Z,35.08
2019-05-19T12:44:30.059Z,34.75
2019-05-19T12:46:58.666Z,34.01
2019-05-19T12:49:27.271Z,33.72
2019-05-19T12:51:55.890Z,33.19
2019-05-19T12:54:24.494Z,32.85
2019-05-19T12:56:52.983Z,34.32
2019-05-19T12:59:21.528Z,33.63
2019-05-19T13:01:50.113Z,33.60
2019-05-19T13:04:18.665Z,34.30
2019-05-19T13:06:47.259Z,34.16
2019-05-19T13:09:15.804Z,34.74
2019-05-19T13:11:44.691Z,33.35
2019-05-19T13:14:13.317Z,32.89
2019-05-19T13:16:41.851Z,35.30
2019-05-19T13:19:10.412Z,35.83
2019-05-19T13:21:39.177Z,36.28
2019-05-19T13:24:07.788Z,35.96
2019-05-19T13:26:36.306Z,35.88
2019-05-19T13:29:04.836Z,36.10
2019-05-19T13:31:33.499Z,36.72
2019-05-19T13:34:02.098Z,36.12
2019-05-19T13:36:30.634Z,35.06
2019-05-19T13:38:59.135Z,34.26
2019-05-19T13:41:27.672Z,34.09
2019-05-19T13:43:59.550Z,34.91
2019-05-19T13:46:26.720Z,34.29
2019-05-19T13:48:55.219Z,35.84
2019-05-19T13:51:23.818Z,34.99
2019-05-19T13:53:52.489Z,33.80
2019-05-19T13:56:21.188Z,34.42
2019-05-19T13:58:49.743Z,33.76
2019-05-19T14:01:28.261Z,35.15
2019-05-19T14:03:51.865Z,35.32
2019-05-19T14:06:19.032Z,34.25
2019-05-19T14:08:47.763Z,33.24
2019-05-19T14:11:16.381Z,33.40
2019-05-19T14:13:45.596Z,33.67
2019-05-19T14:16:14.220Z,34.99
2019-05-19T14:18:42.843Z,33.99
2019-05-19T14:21:11.441Z,35.24
2019-05-19T14:23:39.973Z,36.53
2019-05-19T14:26:08.618Z,37.23
2019-05-19T14:28:37.239Z,37.91
2019-05-19T14:31:05.842Z,37.69
2019-05-19T14:33:34.431Z,38.65
2019-05-19T14:36:03.138Z,38.95
2019-05-19T14:38:31.640Z,39.26
2019-05-19T14:41:00.208Z,40.24
2019-05-19T14:43:33.324Z,41.61
2019-05-19T14:46:01.953Z,41.38
2019-05-19T14:48:30.477Z,41.14
2019-05-19T14:50:59.072Z,40.25
2019-05-19T14:53:27.867Z,40.07
2019-05-19T14:55:56.433Z,39.88
2019-05-19T14:58:25.043Z,40.09
2019-05-19T15:00:53.663Z,39.75
2019-05-19T15:03:22.225Z,39.75
2019-05-19T15:05:50.871Z,39.97
2019-05-19T15:08:19.432Z,40.90
2019-05-19T15:10:47.917Z,40.98
2019-05-19T15:13:16.621Z,39.15
2019-05-19T15:15:46.229Z,39.87
2019-05-19T15:18:14.854Z,40.22
2019-05-19T15:20:43.458Z,41.05
2019-05-19T15:23:11.959Z,40.63
2019-05-19T15:25:40.499Z,41.61
2019-05-19T15:28:09.165Z,41.29
2019-05-19T15:30:37.762Z,41.52
2019-05-19T15:33:06.329Z,41.82
2019-05-19T15:35:34.881Z,41.70
2019-05-19T15:38:03.538Z,41.13
2019-05-19T15:40:32.060Z,41.44
2019-05-19T15:43:00.580Z,40.75
2019-05-19T15:45:29.167Z,40.74
2019-05-19T15:47:57.767Z,41.56
2019-05-19T15:50:26.363Z,41.24
2019-05-19T15:52:55.027Z,41.56
2019-05-19T15:55:23.598Z,41.36
2019-05-19T15:57:52.132Z,42.43
2019-05-19T16:00:22.187Z,43.12
2019-05-19T16:02:50.813Z,42.89
2019-05-19T16:05:19.391Z,42.47
2019-05-19T16:07:48.021Z,42.34
2019-05-19T16:10:16.897Z,42.84
2019-05-19T16:12:45.582Z,43.12
2019-05-19T16:15:15.095Z,43.41
2019-05-19T16:17:43.611Z,42.62
2019-05-19T16:20:12.726Z,42.92
2019-05-19T16:22:41.402Z,43.75
2019-05-19T16:25:10.312Z,43.61
2019-05-19T16:27:39.216Z,43.29
2019-05-19T16:30:09.773Z,42.61
2019-05-19T16:32:38.382Z,42.42
2019-05-19T16:35:07.781Z,42.75
2019-05-19T16:37:36.406Z,42.72
2019-05-19T16:40:06.152Z,42.04
2019-05-19T16:42:34.787Z,41.36
2019-05-19T16:45:03.800Z,41.17
2019-05-19T16:47:32.352Z,41.37
2019-05-19T16:50:00.868Z,41.37
2019-05-19T16:52:29.415Z,42.46
2019-05-19T16:55:16.023Z,42.23
2019-05-19T16:57:44.702Z,41.74
2019-05-19T17:00:13.876Z,41.52
2019-05-19T17:02:42.508Z,41.56
2019-05-19T17:05:11.225Z,41.69
2019-05-19T17:07:39.723Z,42.28
2019-05-19T17:10:09.480Z,42.61
2019-05-19T17:12:38.081Z,41.76
2019-05-19T17:15:07.112Z,42.60
2019-05-19T17:17:35.651Z,43.34
2019-05-19T17:20:06.526Z,44.06
2019-05-19T17:22:35.165Z,44.08
2019-05-19T17:25:05.063Z,43.17
2019-05-19T17:27:33.655Z,43.65
2019-05-19T17:30:02.246Z,43.24
2019-05-19T17:32:30.789Z,43.59
2019-05-19T17:34:59.344Z,43.91
2019-05-19T17:37:27.916Z,43.86
2019-05-19T17:39:56.555Z,43.76
2019-05-19T17:42:25.172Z,44.10
2019-05-19T17:44:53.773Z,43.64
2019-05-19T17:47:22.325Z,45.62
2019-05-19T17:49:50.939Z,44.89
2019-05-19T17:52:19.626Z,47.03
2019-05-19T17:54:48.218Z,47.90
2019-05-19T17:57:16.896Z,48.24
2019-05-19T17:59:48.591Z,49.18
2019-05-19T18:02:18.037Z,49.33
2019-05-19T18:04:46.598Z,49.73
2019-05-19T18:07:15.601Z,49.47
2019-05-19T18:09:44.066Z,50.36
2019-05-19T18:12:12.607Z,51.34
2019-05-19T18:14:41.193Z,51.90
2019-05-19T18:17:09.707Z,53.05
2019-05-19T18:19:38.417Z,53.09
2019-05-19T18:22:07.009Z,52.79
2019-05-19T18:24:35.561Z,52.54
2019-05-19T18:27:04.421Z,55.06
2019-05-19T18:29:32.976Z,53.68
2019-05-19T18:32:01.522Z,54.53
2019-05-19T18:34:30.046Z,56.04
2019-05-19T18:36:58.623Z,55.73
2019-05-19T18:39:27.303Z,55.51
2019-05-19T18:41:55.942Z,56.02
2019-05-19T18:44:24.564Z,55.95
2019-05-19T18:46:53.196Z,56.31
2019-05-19T18:49:21.681Z,58.17
2019-05-19T18:51:50.302Z,58.65
2019-05-19T18:54:18.902Z,58.88
2019-05-19T18:56:47.539Z,57.21
2019-05-19T18:59:16.852Z,57.84
2019-05-19T19:01:45.603Z,58.78
2019-05-19T19:04:14.179Z,59.55
2019-05-19T19:06:43.003Z,59.05
2019-05-19T19:09:11.684Z,60.53
2019-05-19T19:11:40.311Z,59.93
2019-05-19T19:14:08.866Z,60.83
2019-05-19T19:16:37.514Z,60.89
2019-05-19T19:19:06.154Z,60.36
2019-05-19T19:21:34.803Z,60.00
2019-05-19T19:24:03.415Z,59.94
2019-05-19T19:26:31.991Z,59.67
2019-05-19T19:29:00.606Z,59.69
2019-05-19T19:31:29.199Z,59.60
2019-05-19T19:33:57.813Z,59.20
2019-05-19T19:36:26.341Z,59.21
2019-05-19T19:38:54.972Z,59.94
2019-05-19T19:41:23.568Z,59.83
2019-05-19T19:43:52.175Z,60.04
2019-05-19T19:46:20.730Z,60.71
2019-05-19T19:48:50.106Z,60.47
2019-05-19T19:51:18.658Z,60.39
2019-05-19T19:53:47.402Z,60.39
2019-05-19T19:56:15.919Z,61.56
2019-05-19T19:58:44.489Z,60.39
2019-05-19T20:01:13.053Z,59.18
2019-05-19T20:03:41.643Z,60.29
2019-05-19T20:06:10.186Z,60.43
2019-05-19T20:08:38.791Z,60.49
2019-05-19T20:11:07.731Z,60.37
2019-05-19T20:13:36.238Z,60.68
2019-05-19T20:16:04.849Z,60.37
2019-05-19T20:18:33.402Z,60.28
2019-05-19T20:21:02.037Z,60.33
2019-05-19T20:23:30.502Z,60.32
2019-05-19T20:25:59.122Z,59.84
2019-05-19T20:28:27.831Z,59.49
2019-05-19T20:30:56.433Z,60.08
2019-05-19T20:33:24.998Z,59.83
2019-05-19T20:35:53.542Z,61.59
2019-05-19T20:38:22.138Z,60.63
2019-05-19T20:40:50.892Z,60.61
2019-05-19T20:43:19.525Z,60.11
2019-05-19T20:45:48.078Z,60.19
2019-05-19T20:48:16.700Z,61.12
2019-05-19T20:50:45.240Z,61.01
2019-05-19T20:53:13.829Z,60.78
2019-05-19T20:55:42.490Z,61.05
2019-05-19T20:58:11.080Z,60.76
2019-05-19T21:00:50.135Z,60.10
2019-05-19T21:03:09.858Z,61.55
2019-05-19T21:05:38.381Z,61.32
2019-05-19T21:08:06.919Z,61.10
2019-05-19T21:10:35.424Z,62.05
2019-05-19T21:13:03.965Z,62.50
2019-05-19T21:15:32.482Z,62.88
2019-05-19T21:18:01.016Z,63.54
2019-05-19T21:20:29.625Z,62.87
2019-05-19T21:22:58.249Z,63.54
2019-05-19T21:25:26.835Z,62.59
2019-05-19T21:27:55.443Z,63.61
2019-05-19T21:30:24.155Z,63.50
2019-05-19T21:32:52.741Z,63.29
2019-05-19T21:35:21.754Z,64.05
2019-05-19T21:37:50.322Z,64.60
2019-05-19T21:40:18.874Z,64.76
2019-05-19T21:42:47.266Z,64.22
2019-05-19T21:45:15.989Z,64.21
2019-05-19T21:47:44.509Z,64.97
2019-05-19T21:50:13.324Z,65.47
2019-05-19T21:52:41.844Z,66.26
2019-05-19T21:55:10.559Z,65.69
2019-05-19T21:57:39.142Z,64.97
2019-05-19T22:00:11.985Z,64.28
2019-05-19T22:02:40.451Z,65.24
2019-05-19T22:05:09.072Z,65.12
2019-05-19T22:07:55.673Z,66.06
2019-05-19T22:10:33.281Z,66.79
2019-05-19T22:13:01.833Z,66.77
2019-05-19T22:15:30.401Z,66.64
2019-05-19T22:17:59.027Z,65.85
2019-05-19T22:20:27.685Z,65.39
2019-05-19T22:22:56.215Z,65.70
2019-05-19T22:25:24.825Z,65.96
2019-05-19T22:27:53.532Z,66.91
2019-05-19T22:30:22.795Z,68.54
2019-05-19T22:32:52.445Z,67.54
2019-05-19T22:35:21.035Z,66.78
2019-05-19T22:37:49.653Z,67.00
2019-05-19T22:40:18.836Z,67.05
2019-05-19T22:42:47.386Z,67.48
2019-05-19T22:45:15.961Z,68.16
2019-05-19T22:47:44.491Z,68.74
2019-05-19T22:50:13.380Z,68.90
2019-05-19T22:52:41.931Z,68.38
2019-05-19T22:55:10.539Z,68.46
2019-05-19T22:57:39.061Z,68.80
2019-05-19T23:00:10.180Z,68.29
2019-05-19T23:02:38.802Z,67.65
2019-05-19T23:05:07.872Z,68.70
2019-05-19T23:07:36.627Z,68.30
2019-05-19T23:10:08.667Z,67.61
2019-05-19T23:12:37.149Z,67.21
2019-05-19T23:15:09.502Z,67.55
2019-05-19T23:17:38.028Z,68.04
2019-05-19T23:20:06.703Z,69.27
2019-05-19T23:22:35.413Z,68.71
2019-05-19T23:25:05.240Z,68.69
2019-05-19T23:27:33.834Z,68.80
2019-05-19T23:30:02.395Z,68.98
2019-05-19T23:32:30.895Z,69.17
2019-05-19T23:34:59.481Z,68.61
2019-05-19T23:37:27.956Z,69.66
2019-05-19T23:39:56.581Z,70.48
2019-05-19T23:42:25.170Z,70.54
2019-05-19T23:44:53.789Z,69.83
2019-05-19T23:47:23.321Z,69.29
2019-05-19T23:49:51.840Z,69.37
2019-05-19T23:52:20.412Z,69.42
2019-05-19T23:54:48.951Z,69.58
2019-05-19T23:57:17.420Z,69.60
2019-05-19T23:59:46.005Z,68.66
